sensor_id;sensor_type;location;lat;lon;timestamp;P1;durP1;ratioP1;P2;durP2;ratioP2
1128;SDS011;553;51.038;7.216;2023-06-14T00:00:46;7.27;;;6.47;;
1128;SDS011;553;51.038;7.216;2023-06-14T00:03:14;7.60;;;6.00;;
1128;SDS011;553;51.038;7.216;2023-06-14T00:05:44;7.07;;;6.37;;
1128;SDS011;553;51.038;7.216;2023-06-14T00:08:13;7.97;;;6.30;;
1128;SDS011;553;51.038;7.216;2023-06-14T00:10:40;7.23;;;5.93;;
1128;SDS011;553;51.038;7.216;2023-06-14T00:13:08;6.90;;;6.20;;
1128;SDS011;553;51.038;7.216;2023-06-14T00:15:35;6.80;;;6.17;;
1128;SDS011;553;51.038;7.216;2023-06-14T00:18:03;7.40;;;6.03;;
1128;SDS011;553;51.038;7.216;2023-06-14T00:20:31;8.67;;;6.57;;
1128;SDS011;553;51.038;7.216;2023-06-14T00:23:00;9.30;;;5.83;;
1128;SDS011;553;51.038;7.216;2023-06-14T00:25:27;6.93;;;6.20;;
1128;SDS011;553;51.038;7.216;2023-06-14T00:27:55;7.43;;;6.40;;
1128;SDS011;553;51.038;7.216;2023-06-14T00:30:24;6.50;;;5.90;;
1128;SDS011;553;51.038;7.216;2023-06-14T00:32:51;6.37;;;5.77;;
1128;SDS011;553;51.038;7.216;2023-06-14T00:35:18;7.57;;;6.77;;
1128;SDS011;553;51.038;7.216;2023-06-14T00:37:45;6.40;;;5.80;;
1128;SDS011;553;51.038;7.216;2023-06-14T00:40:12;7.80;;;6.30;;
1128;SDS011;553;51.038;7.216;2023-06-14T00:42:39;11.97;;;6.00;;
1128;SDS011;553;51.038;7.216;2023-06-14T00:45:06;9.00;;;6.40;;
1128;SDS011;553;51.038;7.216;2023-06-14T00:47:34;7.70;;;6.33;;
1128;SDS011;553;51.038;7.216;2023-06-14T00:50:05;7.53;;;6.33;;
1128;SDS011;553;51.038;7.216;2023-06-14T00:52:33;10.73;;;5.90;;
1128;SDS011;553;51.038;7.216;2023-06-14T00:55:00;7.90;;;6.30;;
1128;SDS011;553;51.038;7.216;2023-06-14T00:57:28;6.93;;;6.17;;
1128;SDS011;553;51.038;7.216;2023-06-14T00:59:58;7.80;;;6.27;;
1128;SDS011;553;51.038;7.216;2023-06-14T01:02:25;11.00;;;6.30;;
1128;SDS011;553;51.038;7.216;2023-06-14T01:04:52;7.90;;;6.13;;
1128;SDS011;553;51.038;7.216;2023-06-14T01:10:04;8.40;;;5.63;;
1128;SDS011;553;51.038;7.216;2023-06-14T01:15:46;6.87;;;5.60;;
1128;SDS011;553;51.038;7.216;2023-06-14T01:18:14;8.33;;;5.50;;
1128;SDS011;553;51.038;7.216;2023-06-14T01:20:47;8.37;;;6.17;;
1128;SDS011;553;51.038;7.216;2023-06-14T01:23:17;6.60;;;5.30;;
1128;SDS011;553;51.038;7.216;2023-06-14T01:25:48;6.23;;;5.53;;
1128;SDS011;553;51.038;7.216;2023-06-14T01:28:20;7.73;;;5.10;;
1128;SDS011;553;51.038;7.216;2023-06-14T01:30:48;6.30;;;5.10;;
1128;SDS011;553;51.038;7.216;2023-06-14T01:33:20;5.60;;;4.80;;
1128;SDS011;553;51.038;7.216;2023-06-14T01:35:52;5.37;;;4.87;;
1128;SDS011;553;51.038;7.216;2023-06-14T01:38:25;6.93;;;5.47;;
1128;SDS011;553;51.038;7.216;2023-06-14T01:40:54;6.00;;;5.40;;
1128;SDS011;553;51.038;7.216;2023-06-14T01:43:24;6.83;;;5.70;;
1128;SDS011;553;51.038;7.216;2023-06-14T01:45:53;7.60;;;6.10;;
1128;SDS011;553;51.038;7.216;2023-06-14T01:48:22;5.73;;;5.10;;
1128;SDS011;553;51.038;7.216;2023-06-14T01:50:49;6.97;;;5.47;;
1128;SDS011;553;51.038;7.216;2023-06-14T01:53:16;5.80;;;4.60;;
1128;SDS011;553;51.038;7.216;2023-06-14T01:55:43;6.30;;;4.83;;
1128;SDS011;553;51.038;7.216;2023-06-14T01:58:10;7.77;;;5.30;;
1128;SDS011;553;51.038;7.216;2023-06-14T02:00:37;6.37;;;5.07;;
1128;SDS011;553;51.038;7.216;2023-06-14T02:03:04;7.97;;;5.00;;
1128;SDS011;553;51.038;7.216;2023-06-14T02:05:32;6.87;;;4.70;;
1128;SDS011;553;51.038;7.216;2023-06-14T02:08:00;8.10;;;5.50;;
1128;SDS011;553;51.038;7.216;2023-06-14T02:10:27;5.43;;;4.40;;
1128;SDS011;553;51.038;7.216;2023-06-14T02:12:54;7.50;;;5.07;;
1128;SDS011;553;51.038;7.216;2023-06-14T02:15:20;8.33;;;5.00;;
1128;SDS011;553;51.038;7.216;2023-06-14T02:17:48;9.73;;;4.53;;
1128;SDS011;553;51.038;7.216;2023-06-14T02:20:16;5.00;;;4.33;;
1128;SDS011;553;51.038;7.216;2023-06-14T02:22:43;7.00;;;4.57;;
1128;SDS011;553;51.038;7.216;2023-06-14T02:25:11;7.17;;;4.17;;
1128;SDS011;553;51.038;7.216;2023-06-14T02:27:39;5.40;;;4.90;;
1128;SDS011;553;51.038;7.216;2023-06-14T02:30:06;4.90;;;3.53;;
1128;SDS011;553;51.038;7.216;2023-06-14T02:32:33;5.73;;;4.10;;
1128;SDS011;553;51.038;7.216;2023-06-14T02:35:01;6.00;;;4.17;;
1128;SDS011;553;51.038;7.216;2023-06-14T02:37:29;4.53;;;3.73;;
1128;SDS011;553;51.038;7.216;2023-06-14T02:39:56;5.83;;;3.93;;
1128;SDS011;553;51.038;7.216;2023-06-14T02:42:23;6.70;;;5.03;;
1128;SDS011;553;51.038;7.216;2023-06-14T02:44:50;7.37;;;4.60;;
1128;SDS011;553;51.038;7.216;2023-06-14T02:47:18;17.33;;;5.40;;
1128;SDS011;553;51.038;7.216;2023-06-14T02:49:45;8.00;;;4.20;;
1128;SDS011;553;51.038;7.216;2023-06-14T02:52:14;7.00;;;4.23;;
1128;SDS011;553;51.038;7.216;2023-06-14T02:54:41;6.03;;;3.90;;
1128;SDS011;553;51.038;7.216;2023-06-14T02:57:09;6.13;;;4.63;;
1128;SDS011;553;51.038;7.216;2023-06-14T02:59:37;7.10;;;4.90;;
1128;SDS011;553;51.038;7.216;2023-06-14T03:02:04;5.73;;;4.50;;
1128;SDS011;553;51.038;7.216;2023-06-14T03:04:32;7.47;;;3.90;;
1128;SDS011;553;51.038;7.216;2023-06-14T03:07:07;5.10;;;4.13;;
1128;SDS011;553;51.038;7.216;2023-06-14T03:09:39;9.77;;;5.07;;
1128;SDS011;553;51.038;7.216;2023-06-14T03:12:09;8.07;;;4.63;;
1128;SDS011;553;51.038;7.216;2023-06-14T03:14:36;4.97;;;4.40;;
1128;SDS011;553;51.038;7.216;2023-06-14T03:17:03;5.10;;;4.40;;
1128;SDS011;553;51.038;7.216;2023-06-14T03:19:33;5.80;;;4.93;;
1128;SDS011;553;51.038;7.216;2023-06-14T03:21:59;5.63;;;4.33;;
1128;SDS011;553;51.038;7.216;2023-06-14T03:24:29;9.13;;;4.33;;
1128;SDS011;553;51.038;7.216;2023-06-14T03:26:58;6.03;;;4.80;;
1128;SDS011;553;51.038;7.216;2023-06-14T03:29:27;5.53;;;4.70;;
1128;SDS011;553;51.038;7.216;2023-06-14T03:34:40;5.23;;;4.17;;
1128;SDS011;553;51.038;7.216;2023-06-14T03:37:11;8.77;;;4.60;;
1128;SDS011;553;51.038;7.216;2023-06-14T03:39:38;7.10;;;4.40;;
1128;SDS011;553;51.038;7.216;2023-06-14T03:42:15;6.00;;;4.73;;
1128;SDS011;553;51.038;7.216;2023-06-14T03:44:43;6.03;;;4.47;;
1128;SDS011;553;51.038;7.216;2023-06-14T03:47:10;6.33;;;4.20;;
1128;SDS011;553;51.038;7.216;2023-06-14T03:49:37;5.60;;;4.33;;
1128;SDS011;553;51.038;7.216;2023-06-14T03:52:04;5.07;;;3.80;;
1128;SDS011;553;51.038;7.216;2023-06-14T03:54:32;6.57;;;4.20;;
1128;SDS011;553;51.038;7.216;2023-06-14T03:57:02;6.73;;;4.40;;
1128;SDS011;553;51.038;7.216;2023-06-14T03:59:29;7.50;;;4.23;;
1128;SDS011;553;51.038;7.216;2023-06-14T04:01:57;6.30;;;4.40;;
1128;SDS011;553;51.038;7.216;2023-06-14T04:04:24;5.00;;;4.27;;
1128;SDS011;553;51.038;7.216;2023-06-14T04:06:56;4.57;;;4.17;;
1128;SDS011;553;51.038;7.216;2023-06-14T04:09:24;6.50;;;4.77;;
1128;SDS011;553;51.038;7.216;2023-06-14T04:11:52;5.30;;;4.07;;
1128;SDS011;553;51.038;7.216;2023-06-14T04:14:19;5.83;;;4.57;;
1128;SDS011;553;51.038;7.216;2023-06-14T04:16:46;6.57;;;4.50;;
1128;SDS011;553;51.038;7.216;2023-06-14T04:19:16;6.80;;;4.30;;
1128;SDS011;553;51.038;7.216;2023-06-14T04:21:43;6.80;;;4.50;;
1128;SDS011;553;51.038;7.216;2023-06-14T04:24:10;6.20;;;4.50;;
1128;SDS011;553;51.038;7.216;2023-06-14T04:26:42;5.03;;;4.10;;
1128;SDS011;553;51.038;7.216;2023-06-14T04:29:17;6.30;;;4.57;;
1128;SDS011;553;51.038;7.216;2023-06-14T04:31:51;5.13;;;4.40;;
1128;SDS011;553;51.038;7.216;2023-06-14T04:34:22;6.70;;;4.60;;
1128;SDS011;553;51.038;7.216;2023-06-14T04:36:53;5.07;;;4.57;;
1128;SDS011;553;51.038;7.216;2023-06-14T04:39:27;6.70;;;4.03;;
1128;SDS011;553;51.038;7.216;2023-06-14T04:41:54;5.47;;;4.27;;
1128;SDS011;553;51.038;7.216;2023-06-14T04:44:23;4.80;;;4.40;;
1128;SDS011;553;51.038;7.216;2023-06-14T04:46:57;6.33;;;4.70;;
1128;SDS011;553;51.038;7.216;2023-06-14T04:49:24;5.57;;;4.33;;
1128;SDS011;553;51.038;7.216;2023-06-14T04:51:53;6.00;;;4.00;;
1128;SDS011;553;51.038;7.216;2023-06-14T04:54:27;4.90;;;4.40;;
1128;SDS011;553;51.038;7.216;2023-06-14T04:56:58;5.23;;;4.73;;
1128;SDS011;553;51.038;7.216;2023-06-14T04:59:26;6.13;;;4.30;;
1128;SDS011;553;51.038;7.216;2023-06-14T05:01:53;9.93;;;4.80;;
1128;SDS011;553;51.038;7.216;2023-06-14T05:04:21;8.00;;;4.60;;
1128;SDS011;553;51.038;7.216;2023-06-14T05:06:49;4.97;;;4.40;;
1128;SDS011;553;51.038;7.216;2023-06-14T05:09:16;8.60;;;4.50;;
1128;SDS011;553;51.038;7.216;2023-06-14T05:11:43;6.63;;;4.30;;
1128;SDS011;553;51.038;7.216;2023-06-14T05:14:11;5.50;;;4.93;;
1128;SDS011;553;51.038;7.216;2023-06-14T05:16:38;6.03;;;5.20;;
1128;SDS011;553;51.038;7.216;2023-06-14T05:19:06;5.20;;;4.40;;
1128;SDS011;553;51.038;7.216;2023-06-14T05:21:33;4.43;;;3.67;;
1128;SDS011;553;51.038;7.216;2023-06-14T05:24:07;6.80;;;4.70;;
1128;SDS011;553;51.038;7.216;2023-06-14T05:26:35;7.30;;;5.10;;
1128;SDS011;553;51.038;7.216;2023-06-14T05:29:02;9.40;;;4.60;;
1128;SDS011;553;51.038;7.216;2023-06-14T05:31:29;5.20;;;4.47;;
1128;SDS011;553;51.038;7.216;2023-06-14T05:33:56;6.10;;;4.23;;
1128;SDS011;553;51.038;7.216;2023-06-14T05:36:23;5.63;;;4.37;;
1128;SDS011;553;51.038;7.216;2023-06-14T05:38:50;4.90;;;4.00;;
1128;SDS011;553;51.038;7.216;2023-06-14T05:41:26;9.03;;;4.37;;
1128;SDS011;553;51.038;7.216;2023-06-14T05:43:54;5.00;;;4.30;;
1128;SDS011;553;51.038;7.216;2023-06-14T05:46:22;5.63;;;3.90;;
1128;SDS011;553;51.038;7.216;2023-06-14T05:48:51;4.83;;;4.23;;
1128;SDS011;553;51.038;7.216;2023-06-14T05:51:19;5.93;;;4.23;;
1128;SDS011;553;51.038;7.216;2023-06-14T05:53:46;5.23;;;4.00;;
1128;SDS011;553;51.038;7.216;2023-06-14T05:56:13;8.47;;;4.40;;
1128;SDS011;553;51.038;7.216;2023-06-14T05:58:40;4.70;;;3.63;;
1128;SDS011;553;51.038;7.216;2023-06-14T06:01:07;4.70;;;3.33;;
1128;SDS011;553;51.038;7.216;2023-06-14T06:03:34;5.80;;;4.40;;
1128;SDS011;553;51.038;7.216;2023-06-14T06:06:01;3.80;;;3.47;;
1128;SDS011;553;51.038;7.216;2023-06-14T06:08:29;5.73;;;4.40;;
1128;SDS011;553;51.038;7.216;2023-06-14T06:10:56;7.07;;;4.03;;
1128;SDS011;553;51.038;7.216;2023-06-14T06:13:23;5.80;;;3.80;;
1128;SDS011;553;51.038;7.216;2023-06-14T06:15:50;5.63;;;4.23;;
1128;SDS011;553;51.038;7.216;2023-06-14T06:18:16;4.10;;;3.70;;
1128;SDS011;553;51.038;7.216;2023-06-14T06:20:43;5.57;;;3.50;;
1128;SDS011;553;51.038;7.216;2023-06-14T06:23:11;5.77;;;3.83;;
1128;SDS011;553;51.038;7.216;2023-06-14T06:25:38;4.50;;;3.47;;
1128;SDS011;553;51.038;7.216;2023-06-14T06:28:04;5.93;;;3.50;;
1128;SDS011;553;51.038;7.216;2023-06-14T06:30:31;6.57;;;3.70;;
1128;SDS011;553;51.038;7.216;2023-06-14T06:32:58;6.83;;;3.70;;
1128;SDS011;553;51.038;7.216;2023-06-14T06:35:25;4.73;;;3.20;;
1128;SDS011;553;51.038;7.216;2023-06-14T06:37:52;5.30;;;3.40;;
1128;SDS011;553;51.038;7.216;2023-06-14T06:40:19;5.60;;;3.83;;
1128;SDS011;553;51.038;7.216;2023-06-14T06:42:45;5.37;;;3.40;;
1128;SDS011;553;51.038;7.216;2023-06-14T06:45:13;4.00;;;3.07;;
1128;SDS011;553;51.038;7.216;2023-06-14T06:47:40;5.43;;;2.67;;
1128;SDS011;553;51.038;7.216;2023-06-14T06:50:07;4.23;;;3.17;;
1128;SDS011;553;51.038;7.216;2023-06-14T06:52:35;3.50;;;2.40;;
1128;SDS011;553;51.038;7.216;2023-06-14T06:55:01;4.40;;;2.50;;
1128;SDS011;553;51.038;7.216;2023-06-14T06:57:29;4.17;;;2.60;;
1128;SDS011;553;51.038;7.216;2023-06-14T06:59:56;4.43;;;2.43;;
1128;SDS011;553;51.038;7.216;2023-06-14T07:02:24;4.57;;;2.10;;
1128;SDS011;553;51.038;7.216;2023-06-14T07:04:50;2.60;;;2.40;;
1128;SDS011;553;51.038;7.216;2023-06-14T07:07:17;4.97;;;2.00;;
1128;SDS011;553;51.038;7.216;2023-06-14T07:09:44;2.53;;;1.90;;
1128;SDS011;553;51.038;7.216;2023-06-14T07:12:12;2.33;;;2.13;;
1128;SDS011;553;51.038;7.216;2023-06-14T07:14:38;3.17;;;1.50;;
1128;SDS011;553;51.038;7.216;2023-06-14T07:17:05;2.10;;;1.77;;
1128;SDS011;553;51.038;7.216;2023-06-14T07:19:34;3.53;;;1.93;;
1128;SDS011;553;51.038;7.216;2023-06-14T07:22:01;2.50;;;2.00;;
1128;SDS011;553;51.038;7.216;2023-06-14T07:24:27;2.57;;;1.63;;
1128;SDS011;553;51.038;7.216;2023-06-14T07:26:55;4.50;;;1.97;;
1128;SDS011;553;51.038;7.216;2023-06-14T07:29:22;3.67;;;1.67;;
1128;SDS011;553;51.038;7.216;2023-06-14T07:31:49;2.40;;;2.13;;
1128;SDS011;553;51.038;7.216;2023-06-14T07:34:15;3.50;;;1.80;;
1128;SDS011;553;51.038;7.216;2023-06-14T07:36:42;2.23;;;1.70;;
1128;SDS011;553;51.038;7.216;2023-06-14T07:39:10;2.50;;;1.93;;
1128;SDS011;553;51.038;7.216;2023-06-14T07:41:37;3.70;;;1.93;;
1128;SDS011;553;51.038;7.216;2023-06-14T07:44:04;4.70;;;2.13;;
1128;SDS011;553;51.038;7.216;2023-06-14T07:46:31;3.37;;;2.10;;
1128;SDS011;553;51.038;7.216;2023-06-14T07:48:57;2.40;;;1.70;;
1128;SDS011;553;51.038;7.216;2023-06-14T07:51:24;4.50;;;1.70;;
1128;SDS011;553;51.038;7.216;2023-06-14T07:53:51;4.73;;;2.00;;
1128;SDS011;553;51.038;7.216;2023-06-14T07:56:18;2.70;;;2.17;;
1128;SDS011;553;51.038;7.216;2023-06-14T07:58:44;3.47;;;1.60;;
1128;SDS011;553;51.038;7.216;2023-06-14T08:01:11;2.23;;;1.80;;
1128;SDS011;553;51.038;7.216;2023-06-14T08:03:38;2.33;;;1.90;;
1128;SDS011;553;51.038;7.216;2023-06-14T08:06:05;3.13;;;2.17;;
1128;SDS011;553;51.038;7.216;2023-06-14T08:08:33;3.60;;;1.90;;
1128;SDS011;553;51.038;7.216;2023-06-14T08:11:00;2.50;;;2.17;;
1128;SDS011;553;51.038;7.216;2023-06-14T08:13:26;1.73;;;1.63;;
1128;SDS011;553;51.038;7.216;2023-06-14T08:15:53;5.20;;;2.03;;
1128;SDS011;553;51.038;7.216;2023-06-14T08:18:21;3.00;;;1.97;;
1128;SDS011;553;51.038;7.216;2023-06-14T08:20:48;3.10;;;2.20;;
1128;SDS011;553;51.038;7.216;2023-06-14T08:23:15;4.37;;;2.30;;
1128;SDS011;553;51.038;7.216;2023-06-14T08:25:45;2.33;;;2.13;;
1128;SDS011;553;51.038;7.216;2023-06-14T08:28:12;5.63;;;1.93;;
1128;SDS011;553;51.038;7.216;2023-06-14T08:30:38;5.83;;;2.37;;
1128;SDS011;553;51.038;7.216;2023-06-14T08:33:05;2.37;;;1.80;;
1128;SDS011;553;51.038;7.216;2023-06-14T08:35:42;2.43;;;2.00;;
1128;SDS011;553;51.038;7.216;2023-06-14T08:38:10;3.07;;;2.20;;
1128;SDS011;553;51.038;7.216;2023-06-14T08:40:38;5.93;;;2.00;;
1128;SDS011;553;51.038;7.216;2023-06-14T08:43:08;5.23;;;2.20;;
1128;SDS011;553;51.038;7.216;2023-06-14T08:45:35;3.17;;;2.00;;
1128;SDS011;553;51.038;7.216;2023-06-14T08:48:01;2.03;;;1.83;;
1128;SDS011;553;51.038;7.216;2023-06-14T08:50:29;3.13;;;2.00;;
1128;SDS011;553;51.038;7.216;2023-06-14T08:53:00;2.80;;;1.87;;
1128;SDS011;553;51.038;7.216;2023-06-14T08:55:30;2.33;;;1.97;;
1128;SDS011;553;51.038;7.216;2023-06-14T08:58:02;2.20;;;2.00;;
1128;SDS011;553;51.038;7.216;2023-06-14T09:00:31;1.87;;;1.60;;
1128;SDS011;553;51.038;7.216;2023-06-14T09:03:00;3.80;;;1.80;;
1128;SDS011;553;51.038;7.216;2023-06-14T09:05:27;2.97;;;1.80;;
1128;SDS011;553;51.038;7.216;2023-06-14T09:07:54;2.30;;;1.63;;
1128;SDS011;553;51.038;7.216;2023-06-14T09:10:22;4.43;;;1.97;;
1128;SDS011;553;51.038;7.216;2023-06-14T09:12:52;2.47;;;1.63;;
1128;SDS011;553;51.038;7.216;2023-06-14T09:15:19;6.40;;;2.20;;
1128;SDS011;553;51.038;7.216;2023-06-14T09:17:46;4.33;;;2.20;;
1128;SDS011;553;51.038;7.216;2023-06-14T09:20:14;2.87;;;2.10;;
1128;SDS011;553;51.038;7.216;2023-06-14T09:22:45;2.53;;;1.77;;
1128;SDS011;553;51.038;7.216;2023-06-14T09:25:13;2.30;;;1.77;;
1128;SDS011;553;51.038;7.216;2023-06-14T09:28:02;2.80;;;2.00;;
1128;SDS011;553;51.038;7.216;2023-06-14T09:30:32;2.60;;;2.10;;
1128;SDS011;553;51.038;7.216;2023-06-14T09:32:59;3.00;;;2.10;;
1128;SDS011;553;51.038;7.216;2023-06-14T09:35:27;3.53;;;2.20;;
1128;SDS011;553;51.038;7.216;2023-06-14T09:37:57;2.73;;;2.20;;
1128;SDS011;553;51.038;7.216;2023-06-14T09:40:24;8.07;;;1.97;;
1128;SDS011;553;51.038;7.216;2023-06-14T09:42:51;5.20;;;2.03;;
1128;SDS011;553;51.038;7.216;2023-06-14T09:45:18;2.17;;;1.97;;
1128;SDS011;553;51.038;7.216;2023-06-14T09:47:51;2.17;;;1.90;;
1128;SDS011;553;51.038;7.216;2023-06-14T09:50:33;5.13;;;1.90;;
1128;SDS011;553;51.038;7.216;2023-06-14T09:53:02;3.30;;;1.63;;
1128;SDS011;553;51.038;7.216;2023-06-14T09:55:37;2.40;;;1.90;;
1128;SDS011;553;51.038;7.216;2023-06-14T09:58:07;2.13;;;1.90;;
1128;SDS011;553;51.038;7.216;2023-06-14T10:00:36;2.73;;;2.00;;
1128;SDS011;553;51.038;7.216;2023-06-14T10:03:14;2.33;;;1.90;;
1128;SDS011;553;51.038;7.216;2023-06-14T10:05:46;2.10;;;1.90;;
1128;SDS011;553;51.038;7.216;2023-06-14T10:08:17;4.43;;;2.37;;
1128;SDS011;553;51.038;7.216;2023-06-14T10:10:46;2.23;;;2.03;;
1128;SDS011;553;51.038;7.216;2023-06-14T10:13:13;3.50;;;1.97;;
1128;SDS011;553;51.038;7.216;2023-06-14T10:15:50;2.60;;;1.83;;
1128;SDS011;553;51.038;7.216;2023-06-14T10:18:44;3.17;;;2.23;;
1128;SDS011;553;51.038;7.216;2023-06-14T10:21:21;3.57;;;1.80;;
1128;SDS011;553;51.038;7.216;2023-06-14T10:23:58;4.90;;;2.30;;
1128;SDS011;553;51.038;7.216;2023-06-14T10:26:31;2.90;;;2.33;;
1128;SDS011;553;51.038;7.216;2023-06-14T10:28:59;2.23;;;2.03;;
1128;SDS011;553;51.038;7.216;2023-06-14T10:31:44;2.57;;;1.90;;
1128;SDS011;553;51.038;7.216;2023-06-14T10:34:22;2.30;;;2.10;;
1128;SDS011;553;51.038;7.216;2023-06-14T10:39:30;3.67;;;2.10;;
1128;SDS011;553;51.038;7.216;2023-06-14T10:41:58;5.13;;;1.87;;
1128;SDS011;553;51.038;7.216;2023-06-14T10:44:32;3.20;;;1.90;;
1128;SDS011;553;51.038;7.216;2023-06-14T10:47:00;3.53;;;2.23;;
1128;SDS011;553;51.038;7.216;2023-06-14T10:49:36;3.03;;;1.77;;
1128;SDS011;553;51.038;7.216;2023-06-14T10:52:09;2.70;;;1.80;;
1128;SDS011;553;51.038;7.216;2023-06-14T10:55:00;2.07;;;1.80;;
1128;SDS011;553;51.038;7.216;2023-06-14T10:57:36;3.10;;;2.00;;
1128;SDS011;553;51.038;7.216;2023-06-14T11:00:19;4.87;;;1.80;;
1128;SDS011;553;51.038;7.216;2023-06-14T11:03:11;3.23;;;1.87;;
1128;SDS011;553;51.038;7.216;2023-06-14T11:06:07;2.13;;;1.43;;
1128;SDS011;553;51.038;7.216;2023-06-14T11:11:39;2.70;;;1.63;;
1128;SDS011;553;51.038;7.216;2023-06-14T11:14:08;4.00;;;1.80;;
1128;SDS011;553;51.038;7.216;2023-06-14T11:16:36;2.10;;;1.70;;
1128;SDS011;553;51.038;7.216;2023-06-14T11:19:03;2.60;;;1.70;;
1128;SDS011;553;51.038;7.216;2023-06-14T11:21:31;2.33;;;1.30;;
1128;SDS011;553;51.038;7.216;2023-06-14T11:23:59;1.63;;;1.43;;
1128;SDS011;553;51.038;7.216;2023-06-14T11:26:26;1.97;;;1.50;;
1128;SDS011;553;51.038;7.216;2023-06-14T11:28:55;1.70;;;1.40;;
1128;SDS011;553;51.038;7.216;2023-06-14T11:31:23;1.30;;;1.17;;
1128;SDS011;553;51.038;7.216;2023-06-14T11:33:51;2.50;;;1.57;;
1128;SDS011;553;51.038;7.216;2023-06-14T11:36:23;1.90;;;1.50;;
1128;SDS011;553;51.038;7.216;2023-06-14T11:38:59;1.57;;;1.47;;
1128;SDS011;553;51.038;7.216;2023-06-14T11:41:31;6.50;;;1.60;;
1128;SDS011;553;51.038;7.216;2023-06-14T11:44:00;2.90;;;1.33;;
1128;SDS011;553;51.038;7.216;2023-06-14T11:46:28;2.70;;;1.47;;
1128;SDS011;553;51.038;7.216;2023-06-14T11:48:55;3.53;;;1.47;;
1128;SDS011;553;51.038;7.216;2023-06-14T11:51:21;5.10;;;2.13;;
1128;SDS011;553;51.038;7.216;2023-06-14T11:53:48;2.67;;;1.63;;
1128;SDS011;553;51.038;7.216;2023-06-14T11:56:15;1.70;;;1.60;;
1128;SDS011;553;51.038;7.216;2023-06-14T11:58:43;2.37;;;1.60;;
1128;SDS011;553;51.038;7.216;2023-06-14T12:01:14;1.63;;;1.53;;
1128;SDS011;553;51.038;7.216;2023-06-14T12:03:50;1.87;;;1.60;;
1128;SDS011;553;51.038;7.216;2023-06-14T12:06:25;3.43;;;1.70;;
1128;SDS011;553;51.038;7.216;2023-06-14T12:09:00;2.50;;;1.60;;
1128;SDS011;553;51.038;7.216;2023-06-14T12:11:33;2.40;;;1.40;;
1128;SDS011;553;51.038;7.216;2023-06-14T12:14:03;1.63;;;1.50;;
1128;SDS011;553;51.038;7.216;2023-06-14T12:16:34;3.83;;;1.57;;
1128;SDS011;553;51.038;7.216;2023-06-14T12:19:14;1.80;;;1.67;;
1128;SDS011;553;51.038;7.216;2023-06-14T12:21:43;3.40;;;1.50;;
1128;SDS011;553;51.038;7.216;2023-06-14T12:24:17;1.50;;;1.33;;
1128;SDS011;553;51.038;7.216;2023-06-14T12:26:43;1.73;;;1.57;;
1128;SDS011;553;51.038;7.216;2023-06-14T12:29:10;2.17;;;1.30;;
1128;SDS011;553;51.038;7.216;2023-06-14T12:31:39;1.90;;;1.70;;
1128;SDS011;553;51.038;7.216;2023-06-14T12:34:07;3.50;;;1.70;;
1128;SDS011;553;51.038;7.216;2023-06-14T12:36:33;3.53;;;2.07;;
1128;SDS011;553;51.038;7.216;2023-06-14T12:39:06;2.97;;;1.73;;
1128;SDS011;553;51.038;7.216;2023-06-14T12:41:34;1.83;;;1.63;;
1128;SDS011;553;51.038;7.216;2023-06-14T12:44:01;2.63;;;1.77;;
1128;SDS011;553;51.038;7.216;2023-06-14T12:46:30;2.00;;;1.70;;
1128;SDS011;553;51.038;7.216;2023-06-14T12:48:58;2.13;;;1.83;;
1128;SDS011;553;51.038;7.216;2023-06-14T12:51:25;1.87;;;1.40;;
1128;SDS011;553;51.038;7.216;2023-06-14T12:53:51;2.20;;;2.00;;
1128;SDS011;553;51.038;7.216;2023-06-14T12:56:18;2.83;;;2.10;;
1128;SDS011;553;51.038;7.216;2023-06-14T12:58:47;2.30;;;1.80;;
1128;SDS011;553;51.038;7.216;2023-06-14T13:01:14;2.00;;;1.83;;
1128;SDS011;553;51.038;7.216;2023-06-14T13:03:41;1.93;;;1.77;;
1128;SDS011;553;51.038;7.216;2023-06-14T13:06:08;2.20;;;1.63;;
1128;SDS011;553;51.038;7.216;2023-06-14T13:08:34;1.87;;;1.67;;
1128;SDS011;553;51.038;7.216;2023-06-14T13:11:01;2.07;;;1.87;;
1128;SDS011;553;51.038;7.216;2023-06-14T13:13:28;2.70;;;2.47;;
1128;SDS011;553;51.038;7.216;2023-06-14T13:15:54;3.03;;;2.30;;
1128;SDS011;553;51.038;7.216;2023-06-14T13:18:21;2.67;;;2.17;;
1128;SDS011;553;51.038;7.216;2023-06-14T13:20:48;4.33;;;2.60;;
1128;SDS011;553;51.038;7.216;2023-06-14T13:23:15;2.63;;;2.17;;
1128;SDS011;553;51.038;7.216;2023-06-14T13:25:42;11.07;;;2.67;;
1128;SDS011;553;51.038;7.216;2023-06-14T13:28:09;2.53;;;2.33;;
1128;SDS011;553;51.038;7.216;2023-06-14T13:30:36;2.33;;;1.90;;
1128;SDS011;553;51.038;7.216;2023-06-14T13:33:03;2.90;;;2.10;;
1128;SDS011;553;51.038;7.216;2023-06-14T13:35:30;3.67;;;2.13;;
1128;SDS011;553;51.038;7.216;2023-06-14T13:37:56;3.13;;;1.93;;
1128;SDS011;553;51.038;7.216;2023-06-14T13:40:23;3.10;;;2.10;;
1128;SDS011;553;51.038;7.216;2023-06-14T13:42:50;2.57;;;2.10;;
1128;SDS011;553;51.038;7.216;2023-06-14T13:45:17;4.17;;;2.50;;
1128;SDS011;553;51.038;7.216;2023-06-14T13:47:44;3.33;;;2.00;;
1128;SDS011;553;51.038;7.216;2023-06-14T13:50:14;2.00;;;1.80;;
1128;SDS011;553;51.038;7.216;2023-06-14T13:52:42;3.63;;;2.60;;
1128;SDS011;553;51.038;7.216;2023-06-14T13:55:09;3.30;;;2.10;;
1128;SDS011;553;51.038;7.216;2023-06-14T13:57:36;4.80;;;2.50;;
1128;SDS011;553;51.038;7.216;2023-06-14T14:00:02;2.67;;;2.07;;
1128;SDS011;553;51.038;7.216;2023-06-14T14:02:37;5.23;;;2.37;;
1128;SDS011;553;51.038;7.216;2023-06-14T14:05:06;6.80;;;2.40;;
1128;SDS011;553;51.038;7.216;2023-06-14T14:07:33;2.83;;;2.30;;
1128;SDS011;553;51.038;7.216;2023-06-14T14:10:01;4.13;;;2.10;;
1128;SDS011;553;51.038;7.216;2023-06-14T14:12:28;1.90;;;1.80;;
1128;SDS011;553;51.038;7.216;2023-06-14T14:14:54;2.60;;;2.13;;
1128;SDS011;553;51.038;7.216;2023-06-14T14:17:22;2.70;;;2.27;;
1128;SDS011;553;51.038;7.216;2023-06-14T14:19:49;2.23;;;1.90;;
1128;SDS011;553;51.038;7.216;2023-06-14T14:22:16;4.27;;;2.63;;
1128;SDS011;553;51.038;7.216;2023-06-14T14:24:42;3.60;;;2.30;;
1128;SDS011;553;51.038;7.216;2023-06-14T14:27:09;4.90;;;2.40;;
1128;SDS011;553;51.038;7.216;2023-06-14T14:29:36;4.00;;;2.23;;
1128;SDS011;553;51.038;7.216;2023-06-14T14:32:03;4.87;;;2.57;;
1128;SDS011;553;51.038;7.216;2023-06-14T14:34:30;3.13;;;2.30;;
1128;SDS011;553;51.038;7.216;2023-06-14T14:36:57;2.90;;;2.20;;
1128;SDS011;553;51.038;7.216;2023-06-14T14:39:24;3.97;;;2.47;;
1128;SDS011;553;51.038;7.216;2023-06-14T14:41:50;2.73;;;2.07;;
1128;SDS011;553;51.038;7.216;2023-06-14T14:44:17;3.10;;;2.27;;
1128;SDS011;553;51.038;7.216;2023-06-14T14:46:45;2.47;;;2.27;;
1128;SDS011;553;51.038;7.216;2023-06-14T14:49:12;3.13;;;2.13;;
1128;SDS011;553;51.038;7.216;2023-06-14T14:51:39;3.37;;;2.07;;
1128;SDS011;553;51.038;7.216;2023-06-14T14:54:06;4.70;;;2.40;;
1128;SDS011;553;51.038;7.216;2023-06-14T14:56:33;3.80;;;2.33;;
1128;SDS011;553;51.038;7.216;2023-06-14T14:59:01;3.27;;;2.40;;
1128;SDS011;553;51.038;7.216;2023-06-14T15:01:29;3.10;;;2.20;;
1128;SDS011;553;51.038;7.216;2023-06-14T15:03:55;2.40;;;2.00;;
1128;SDS011;553;51.038;7.216;2023-06-14T15:06:25;2.60;;;2.40;;
1128;SDS011;553;51.038;7.216;2023-06-14T15:08:52;2.70;;;2.43;;
1128;SDS011;553;51.038;7.216;2023-06-14T15:11:18;4.00;;;2.47;;
1128;SDS011;553;51.038;7.216;2023-06-14T15:13:46;4.20;;;2.57;;
1128;SDS011;553;51.038;7.216;2023-06-14T15:16:13;2.70;;;2.43;;
1128;SDS011;553;51.038;7.216;2023-06-14T15:18:40;3.53;;;2.10;;
1128;SDS011;553;51.038;7.216;2023-06-14T15:21:07;3.67;;;2.27;;
1128;SDS011;553;51.038;7.216;2023-06-14T15:23:34;4.33;;;2.50;;
1128;SDS011;553;51.038;7.216;2023-06-14T15:26:01;2.40;;;1.90;;
1128;SDS011;553;51.038;7.216;2023-06-14T15:28:27;2.70;;;2.50;;
1128;SDS011;553;51.038;7.216;2023-06-14T15:30:55;3.23;;;2.50;;
1128;SDS011;553;51.038;7.216;2023-06-14T15:33:22;2.50;;;2.30;;
1128;SDS011;553;51.038;7.216;2023-06-14T15:35:49;2.80;;;2.40;;
1128;SDS011;553;51.038;7.216;2023-06-14T15:38:16;3.30;;;2.00;;
1128;SDS011;553;51.038;7.216;2023-06-14T15:40:43;3.83;;;2.40;;
1128;SDS011;553;51.038;7.216;2023-06-14T15:43:09;5.77;;;2.67;;
1128;SDS011;553;51.038;7.216;2023-06-14T15:45:36;4.40;;;2.30;;
1128;SDS011;553;51.038;7.216;2023-06-14T15:48:03;3.17;;;2.37;;
1128;SDS011;553;51.038;7.216;2023-06-14T15:50:31;4.50;;;2.57;;
1128;SDS011;553;51.038;7.216;2023-06-14T15:52:57;2.40;;;2.20;;